createdAt,value
2022-09-05T00:01:31.593Z,100060.69
2022-09-05T00:04:46.426Z,100072.69
2022-09-05T00:07:57.998Z,100068.81
2022-09-05T00:10:35.973Z,100057.97
2022-09-05T00:13:09.038Z,100055.81
2022-09-05T00:15:51.807Z,100058.50
2022-09-05T00:24:20.153Z,100064.00
2022-09-05T00:24:26.254Z,100063.06
2022-09-05T00:25:35.659Z,100067.13
2022-09-05T00:28:25.273Z,100062.53
2022-09-05T00:31:53.538Z,100059.09
2022-09-05T00:34:06.608Z,100055.44
2022-09-05T00:36:54.798Z,100051.97
2022-09-05T00:39:38.404Z,100057.88
2022-09-05T00:42:11.251Z,100050.91
2022-09-05T00:44:50.966Z,100042.91
2022-09-05T00:47:33.445Z,100044.47
2022-09-05T00:50:07.566Z,100046.41
2022-09-05T00:52:42.952Z,100040.34
2022-09-05T00:55:58.804Z,100043.41
2022-09-05T00:58:46.257Z,100045.38
2022-09-05T01:01:29.391Z,100046.38
2022-09-05T01:04:19.303Z,100044.19
2022-09-05T01:07:03.665Z,100040.53
2022-09-05T01:09:57.926Z,100042.63
2022-09-05T01:13:05.287Z,100042.34
2022-09-05T01:15:56.917Z,100038.28
2022-09-05T01:18:32.721Z,100035.66
2022-09-05T01:21:17.353Z,100034.84
2022-09-05T01:24:07.428Z,100038.06
2022-09-05T01:26:48.117Z,100047.38
2022-09-05T01:29:40.062Z,100049.94
2022-09-05T01:32:26.855Z,100049.78
2022-09-05T01:35:01.236Z,100044.22
2022-09-05T01:38:13.243Z,100049.38
2022-09-05T01:41:04.626Z,100052.03
2022-09-05T01:43:53.081Z,100050.09
2022-09-05T01:46:34.938Z,100052.94
2022-09-05T01:49:41.943Z,100046.91
2022-09-05T01:52:29.134Z,100047.34
2022-09-05T01:55:26.954Z,100050.69
2022-09-05T01:58:16.332Z,100047.59
2022-09-05T02:01:32.582Z,100053.28
2022-09-05T02:04:08.634Z,100044.22
2022-09-05T02:06:52.659Z,100042.47
2022-09-05T02:09:40.162Z,100059.88
2022-09-05T02:12:15.785Z,100053.84
2022-09-05T02:14:45.244Z,100055.94
2022-09-05T02:17:50.638Z,100044.59
2022-09-05T02:20:26.654Z,100040.53
2022-09-05T02:22:56.053Z,100046.28
2022-09-05T02:26:01.060Z,100040.34
2022-09-05T02:28:43.538Z,100038.41
2022-09-05T02:31:39.339Z,100048.78
2022-09-05T02:34:45.026Z,100046.44
2022-09-05T02:38:51.053Z,100052.44
2022-09-05T02:45:19.183Z,100051.91
2022-09-05T02:45:21.088Z,100049.94
2022-09-05T02:46:42.135Z,100053.88
2022-09-05T02:51:50.829Z,100051.34
2022-09-05T02:57:28.839Z,100057.09
2022-09-05T02:57:47.027Z,100057.78
2022-09-05T02:58:07.217Z,100045.72
2022-09-05T03:00:44.394Z,100044.91
2022-09-05T03:03:34.892Z,100046.16
2022-09-05T03:06:34.959Z,100040.69
2022-09-05T03:09:35.604Z,100047.97
2022-09-05T03:12:29.238Z,100045.72
2022-09-05T03:15:22.389Z,100050.75
2022-09-05T03:18:21.046Z,100049.38
2022-09-05T03:21:22.327Z,100040.41
2022-09-05T03:24:22.975Z,100038.97
2022-09-05T03:27:35.486Z,100041.91
2022-09-05T03:30:21.364Z,100048.09
2022-09-05T03:33:25.237Z,100045.84
2022-09-05T03:36:28.352Z,100042.34
2022-09-05T03:39:19.521Z,100041.22
2022-09-05T03:42:02.924Z,100039.53
2022-09-05T03:44:54.144Z,100040.66
2022-09-05T03:47:37.655Z,100046.09
2022-09-05T03:57:04.688Z,100054.34
2022-09-05T03:57:17.190Z,100047.75
2022-09-05T03:57:32.255Z,100053.94
2022-09-05T04:00:02.364Z,100056.50
2022-09-05T04:05:38.003Z,100044.84
2022-09-05T04:08:13.435Z,100043.41
2022-09-05T04:08:38.696Z,100051.66
2022-09-05T04:11:15.729Z,100058.81
2022-09-05T04:13:51.101Z,100055.34
2022-09-05T04:16:20.116Z,100056.22
2022-09-05T04:19:11.390Z,100060.50
2022-09-05T04:22:14.313Z,100062.97
2022-09-05T04:25:03.950Z,100059.34
2022-09-05T04:27:36.215Z,100066.09
2022-09-05T04:30:39.862Z,100067.63
2022-09-05T04:33:36.716Z,100073.66
2022-09-05T04:36:23.795Z,100066.38
2022-09-05T04:39:18.948Z,100069.84
2022-09-05T04:42:11.067Z,100070.41
2022-09-05T04:44:44.359Z,100067.88
2022-09-05T04:47:23.622Z,100066.91
2022-09-05T04:50:00.842Z,100073.56
2022-09-05T04:53:05.007Z,100072.03
2022-09-05T04:55:50.927Z,100081.25
2022-09-05T04:59:20.272Z,100078.59
2022-09-05T05:06:05.152Z,100082.81
2022-09-05T05:06:11.542Z,100078.53
2022-09-05T05:07:30.243Z,100086.66
2022-09-05T05:10:45.262Z,100088.59
2022-09-05T05:17:59.820Z,100089.47
2022-09-05T05:18:06.251Z,100085.28
2022-09-05T05:19:21.561Z,100091.47
2022-09-05T05:21:52.567Z,100090.50
2022-09-05T05:24:28.735Z,100093.31
2022-09-05T05:27:05.306Z,100099.44
2022-09-05T05:29:43.440Z,100091.38
2022-09-05T05:32:26.153Z,100095.34
2022-09-05T05:35:23.237Z,100103.31
2022-09-05T05:37:56.000Z,100103.06
2022-09-05T05:40:31.633Z,100092.97
2022-09-05T05:43:15.692Z,100099.53
2022-09-05T05:45:42.886Z,100099.28
2022-09-05T05:48:18.271Z,100098.91
2022-09-05T05:51:20.055Z,100107.81
2022-09-05T05:54:16.404Z,100107.84
2022-09-05T05:56:52.408Z,100106.75
2022-09-05T05:59:56.317Z,100105.09
2022-09-05T06:02:46.695Z,100109.47
2022-09-05T06:05:59.304Z,100113.28
2022-09-05T06:14:51.311Z,100108.53
2022-09-05T06:15:06.149Z,100114.41
2022-09-05T06:15:40.360Z,100108.25
2022-09-05T06:18:19.120Z,100109.38
2022-09-05T06:22:10.169Z,100109.66
2022-09-05T06:25:05.551Z,100108.81
2022-09-05T06:28:19.158Z,100117.22
2022-09-05T06:31:30.185Z,100114.94
2022-09-05T06:34:33.118Z,100110.16
2022-09-05T06:37:03.400Z,100109.50
2022-09-05T06:40:05.912Z,100112.94
2022-09-05T06:42:44.294Z,100114.94
2022-09-05T06:45:34.286Z,100114.34
2022-09-05T06:48:24.907Z,100115.59
2022-09-05T06:51:44.729Z,100116.13
2022-09-05T06:54:11.419Z,100126.38
2022-09-05T06:57:23.990Z,100119.91
2022-09-05T07:00:05.815Z,100120.59
2022-09-05T07:03:00.638Z,100120.16
2022-09-05T07:05:45.491Z,100120.97
2022-09-05T07:08:34.717Z,100132.16
2022-09-05T07:11:15.860Z,100121.28
2022-09-05T07:14:10.408Z,100122.47
2022-09-05T07:16:50.867Z,100116.75
2022-09-05T07:19:41.211Z,100123.44
2022-09-05T07:22:47.966Z,100127.56
2022-09-05T07:25:22.795Z,100115.66
2022-09-05T07:28:29.103Z,100115.00
2022-09-05T07:31:01.096Z,100113.75
2022-09-05T07:33:31.109Z,100124.06
2022-09-05T07:36:08.699Z,100118.75
2022-09-05T07:38:52.040Z,100112.63
2022-09-05T07:41:29.787Z,100113.91
2022-09-05T07:44:05.007Z,100118.66
2022-09-05T07:46:33.645Z,100111.38
2022-09-05T07:49:07.266Z,100114.94
2022-09-05T07:56:48.066Z,100116.78
2022-09-05T07:57:06.014Z,100116.38
2022-09-05T07:57:51.893Z,100118.59
2022-09-05T08:00:25.872Z,100110.44
2022-09-05T08:02:58.093Z,100111.66
2022-09-05T08:05:35.916Z,100113.03
2022-09-05T08:08:09.854Z,100102.97
2022-09-05T08:11:24.015Z,100107.00
2022-09-05T08:13:46.450Z,100108.03
2022-09-05T08:16:23.157Z,100108.69
2022-09-05T08:19:24.779Z,100113.22
2022-09-05T08:21:53.718Z,100111.44
2022-09-05T08:24:26.780Z,100103.72
2022-09-05T08:27:04.622Z,100105.88
2022-09-05T08:29:36.364Z,100105.03
2022-09-05T08:32:09.539Z,100098.16
2022-09-05T08:34:53.961Z,100095.44
2022-09-05T08:37:23.014Z,100095.59
2022-09-05T08:39:54.327Z,100099.25
2022-09-05T08:42:58.755Z,100091.19
2022-09-05T08:46:39.789Z,100086.63
2022-09-05T08:49:11.270Z,100088.97
2022-09-05T08:51:54.502Z,100083.22
2022-09-05T08:54:21.921Z,100077.25
2022-09-05T08:57:07.632Z,100081.59
2022-09-05T09:00:19.057Z,100076.28
2022-09-05T09:03:12.355Z,100069.84
2022-09-05T09:06:12.704Z,100069.25
2022-09-05T09:09:25.279Z,100062.59
2022-09-05T09:11:56.987Z,100061.50
2022-09-05T09:14:51.295Z,100063.22
2022-09-05T09:17:43.001Z,100061.75
2022-09-05T09:20:36.525Z,100059.88
2022-09-05T09:23:39.783Z,100061.09
2022-09-05T09:26:18.280Z,100054.38
2022-09-05T09:28:55.539Z,100057.16
2022-09-05T09:31:33.620Z,100048.13
2022-09-05T09:34:18.646Z,100055.00
2022-09-05T09:37:11.079Z,100058.44
2022-09-05T09:40:05.377Z,100048.78
2022-09-05T09:42:40.728Z,100044.31
2022-09-05T09:45:34.040Z,100033.38
2022-09-05T09:48:09.674Z,100034.34
2022-09-05T09:50:59.336Z,100031.59
2022-09-05T09:53:57.977Z,100032.00
2022-09-05T09:57:11.580Z,100030.69
2022-09-05T09:59:57.546Z,100018.19
2022-09-05T10:07:38.171Z,100015.38
2022-09-05T10:10:45.545Z,100005.72
2022-09-05T10:10:49.224Z,100014.97
2022-09-05T10:12:16.361Z,100001.81
2022-09-05T10:15:09.583Z,100004.63
2022-09-05T10:17:55.202Z,99998.28
2022-09-05T10:20:24.978Z,99999.88
2022-09-05T10:22:56.698Z,99995.97
2022-09-05T10:25:48.530Z,99988.53
2022-09-05T10:28:40.015Z,99976.91
2022-09-05T10:34:29.560Z,99972.94
2022-09-05T10:35:14.164Z,99980.44
2022-09-05T10:37:43.515Z,99967.53
2022-09-05T10:40:14.840Z,99972.72
2022-09-05T10:43:00.761Z,99962.53
2022-09-05T10:45:46.986Z,99967.56
2022-09-05T10:48:19.479Z,99968.97
2022-09-05T10:51:01.025Z,99972.94
2022-09-05T10:53:45.295Z,99959.00
2022-09-05T10:56:16.546Z,99963.94
2022-09-05T10:59:53.261Z,99962.94
2022-09-05T11:02:27.979Z,99958.38
2022-09-05T11:05:25.297Z,99950.47
2022-09-05T11:08:19.759Z,99946.63
2022-09-05T11:10:52.484Z,99940.47
2022-09-05T11:13:30.791Z,99940.59
2022-09-05T11:16:18.180Z,99934.22
2022-09-05T11:19:08.968Z,99936.31
2022-09-05T11:22:04.179Z,99928.59
2022-09-05T11:25:00.249Z,99920.44
2022-09-05T11:27:34.560Z,99914.28
2022-09-05T11:30:04.376Z,99905.41
2022-09-05T11:39:46.769Z,99905.38
2022-09-05T11:39:50.616Z,99899.59
2022-09-05T11:40:07.750Z,99908.50
2022-09-05T11:42:55.371Z,99906.66
2022-09-05T11:45:54.414Z,99905.78
2022-09-05T11:48:41.891Z,99899.91
2022-09-05T11:51:58.383Z,99896.56
2022-09-05T11:54:49.927Z,99890.31
2022-09-05T11:57:44.387Z,99897.69
2022-09-05T12:00:34.512Z,99898.84
2022-09-05T12:03:57.587Z,99898.25
2022-09-05T12:06:38.176Z,99902.16
2022-09-05T12:09:29.614Z,99889.44
2022-09-05T12:12:39.552Z,99897.88
2022-09-05T12:15:33.781Z,99901.00
2022-09-05T12:18:19.435Z,99894.50
2022-09-05T12:21:03.428Z,99887.47
2022-09-05T12:24:53.377Z,99884.50
2022-09-05T12:27:42.867Z,99884.97
2022-09-05T12:29:59.356Z,99884.06
2022-09-05T12:36:07.239Z,99875.47
2022-09-05T12:40:52.913Z,99880.97
2022-09-05T12:41:44.997Z,99875.63
2022-09-05T12:42:09.961Z,99870.88
2022-09-05T12:45:09.686Z,99878.03
2022-09-05T12:48:12.321Z,99877.69
2022-09-05T12:51:00.304Z,99863.94
2022-09-05T12:53:39.700Z,99868.06
2022-09-05T12:58:21.356Z,99851.72
2022-09-05T13:02:57.718Z,99853.19
2022-09-05T13:03:08.950Z,99840.97
2022-09-05T13:05:01.901Z,99840.94
2022-09-05T13:07:38.798Z,99845.78
2022-09-05T13:13:27.439Z,99847.97
2022-09-05T13:14:58.635Z,99843.91
2022-09-05T13:16:30.686Z,99842.59
2022-09-05T13:19:07.284Z,99843.56
2022-09-05T13:21:45.459Z,99834.38
2022-09-05T13:24:17.291Z,99831.00
2022-09-05T13:26:57.548Z,99832.19
2022-09-05T13:29:52.550Z,99833.38
2022-09-05T13:32:32.342Z,99835.78
2022-09-05T13:38:17.737Z,99834.22
2022-09-05T13:41:04.324Z,99831.19
2022-09-05T13:43:38.231Z,99824.16
2022-09-05T13:46:09.557Z,99820.25
2022-09-05T13:51:43.643Z,99820.41
2022-09-05T13:54:36.187Z,99815.31
2022-09-05T13:57:32.521Z,99808.16
2022-09-05T14:00:28.356Z,99810.38
2022-09-05T14:03:38.979Z,99804.38
2022-09-05T14:06:45.794Z,99798.00
2022-09-05T14:09:38.538Z,99798.47
2022-09-05T14:12:11.779Z,99798.47
2022-09-05T14:15:14.093Z,99798.94
2022-09-05T14:17:55.854Z,99793.50
2022-09-05T14:20:47.313Z,99791.81
2022-09-05T14:23:18.805Z,99789.38
2022-09-05T14:25:57.910Z,99789.78
2022-09-05T14:28:33.583Z,99788.31
2022-09-05T14:35:22.129Z,99784.78
2022-09-05T14:37:40.130Z,99778.56
2022-09-05T14:37:43.860Z,99793.97
2022-09-05T14:40:29.613Z,99781.50
2022-09-05T14:43:34.488Z,99775.09
2022-09-05T14:46:39.048Z,99778.59
2022-09-05T14:49:34.402Z,99778.22
2022-09-05T14:52:14.974Z,99770.53
2022-09-05T15:02:42.810Z,99759.44
2022-09-05T15:02:44.983Z,99758.22
2022-09-05T15:03:12.432Z,99759.06
2022-09-05T15:05:45.576Z,99751.16
2022-09-05T15:10:21.955Z,99751.97
2022-09-05T15:12:17.891Z,99758.44
2022-09-05T15:14:04.079Z,99755.09
2022-09-05T15:16:38.641Z,99757.97
2022-09-05T15:19:08.631Z,99756.53
2022-09-05T15:21:38.338Z,99756.13
2022-09-05T15:24:24.290Z,99752.97
2022-09-05T15:26:59.289Z,99754.22
2022-09-05T15:29:31.931Z,99758.22
2022-09-05T15:32:22.457Z,99752.38
2022-09-05T15:34:50.774Z,99753.66
2022-09-05T15:37:40.354Z,99747.44
2022-09-05T15:40:22.482Z,99742.84
2022-09-05T15:42:56.672Z,99738.28
2022-09-05T15:45:27.771Z,99744.28
2022-09-05T15:48:21.318Z,99740.34
2022-09-05T15:50:51.725Z,99738.88
2022-09-05T15:53:36.921Z,99732.44
2022-09-05T15:56:09.572Z,99738.88
2022-09-05T15:58:53.595Z,99731.84
2022-09-05T16:01:59.096Z,99732.03
2022-09-05T16:10:28.638Z,99726.00
2022-09-05T16:10:40.967Z,99719.16
2022-09-05T16:10:41.777Z,99726.66
2022-09-05T16:13:17.203Z,99725.63
2022-09-05T16:22:59.585Z,99718.34
2022-09-05T16:23:30.263Z,99714.84
2022-09-05T16:23:31.434Z,99725.22
2022-09-05T16:24:57.803Z,99723.59
2022-09-05T16:27:21.724Z,99720.91
2022-09-05T16:29:50.537Z,99718.00
2022-09-05T16:32:29.335Z,99707.22
2022-09-05T16:35:01.726Z,99715.97
2022-09-05T16:37:41.610Z,99715.78
2022-09-05T16:40:11.748Z,99714.53
2022-09-05T16:42:49.421Z,99716.00
2022-09-05T16:45:34.838Z,99708.50
2022-09-05T16:48:15.184Z,99709.75
2022-09-05T16:50:55.389Z,99703.94
2022-09-05T16:53:58.215Z,99707.69
2022-09-05T16:56:44.537Z,99704.34
2022-09-05T16:59:19.281Z,99697.28
2022-09-05T17:02:06.106Z,99694.59
2022-09-05T17:05:04.266Z,99688.56
2022-09-05T17:07:52.687Z,99697.09
2022-09-05T17:10:25.615Z,99688.81
2022-09-05T17:12:55.875Z,99681.53
2022-09-05T17:15:51.652Z,99688.59
2022-09-05T17:18:24.974Z,99687.34
2022-09-05T17:20:59.202Z,99688.19
2022-09-05T17:29:28.935Z,99687.34
2022-09-05T17:29:49.406Z,99689.88
2022-09-05T17:32:39.507Z,99685.28
2022-09-05T17:35:18.469Z,99684.66
2022-09-05T17:38:11.709Z,99681.16
2022-09-05T17:41:05.224Z,99684.88
2022-09-05T17:43:34.978Z,99680.06
2022-09-05T17:46:34.610Z,99684.41
2022-09-05T17:49:18.023Z,99688.94
2022-09-05T17:51:52.313Z,99683.53
2022-09-05T17:54:29.999Z,99690.41
2022-09-05T17:57:16.404Z,99682.28
2022-09-05T17:59:42.895Z,99693.06
2022-09-05T18:02:09.446Z,99697.41
2022-09-05T18:04:53.807Z,99694.25
2022-09-05T18:07:26.287Z,99703.81
2022-09-05T18:10:05.946Z,99706.47
2022-09-05T18:13:13.486Z,99703.13
2022-09-05T18:15:32.493Z,99705.59
2022-09-05T18:18:08.678Z,99712.22
2022-09-05T18:21:12.253Z,99705.72
2022-09-05T18:26:42.762Z,99708.56
2022-09-05T18:29:24.724Z,99708.34
2022-09-05T18:32:11.258Z,99725.06
2022-09-05T18:34:37.665Z,99721.50
2022-09-05T18:37:36.506Z,99725.00
2022-09-05T18:40:16.665Z,99722.91
2022-09-05T18:43:10.352Z,99726.53
2022-09-05T18:45:38.860Z,99727.69
2022-09-05T18:48:29.999Z,99734.50
2022-09-05T18:51:15.308Z,99739.63
2022-09-05T18:53:47.393Z,99735.84
2022-09-05T18:57:19.879Z,99733.28
2022-09-05T18:59:48.404Z,99735.44
2022-09-05T19:02:50.303Z,99737.63
2022-09-05T19:05:37.852Z,99734.22
2022-09-05T19:08:29.108Z,99734.22
2022-09-05T19:11:01.673Z,99730.28
2022-09-05T19:13:49.012Z,99733.53
2022-09-05T19:16:43.787Z,99731.47
2022-09-05T19:19:24.939Z,99731.22
2022-09-05T19:23:02.652Z,99720.41
2022-09-05T19:24:46.066Z,99716.25
2022-09-05T19:28:48.545Z,99717.44
2022-09-05T19:36:50.763Z,99718.66
2022-09-05T19:36:57.369Z,99718.50
2022-09-05T19:37:11.015Z,99722.22
2022-09-05T19:38:23.681Z,99713.69
2022-09-05T19:47:29.782Z,99709.53
2022-09-05T19:47:40.057Z,99706.34
2022-09-05T19:47:56.351Z,99701.25
2022-09-05T19:49:12.887Z,99703.69
2022-09-05T19:51:41.191Z,99698.63
2022-09-05T19:54:22.176Z,99705.75
2022-09-05T19:56:48.776Z,99693.44
2022-09-05T19:59:22.816Z,99704.38
2022-09-05T20:01:51.632Z,99709.53
2022-09-05T20:04:19.516Z,99706.97
2022-09-05T20:06:47.541Z,99701.13
2022-09-05T20:09:19.411Z,99708.75
2022-09-05T20:11:49.656Z,99702.88
2022-09-05T20:14:28.928Z,99701.78
2022-09-05T20:17:16.845Z,99701.22
2022-09-05T20:19:43.920Z,99701.56
2022-09-05T20:22:47.913Z,99708.97
2022-09-05T20:25:05.583Z,99706.13
2022-09-05T20:27:32.084Z,99700.78
2022-09-05T20:30:08.246Z,99707.09
2022-09-05T20:32:42.120Z,99706.44
2022-09-05T20:41:32.140Z,99708.94
2022-09-05T20:43:14.456Z,99708.41
2022-09-05T20:43:26.645Z,99699.34
2022-09-05T20:43:55.792Z,99709.47
2022-09-05T20:51:03.986Z,99721.72
2022-09-05T20:54:14.520Z,99707.72
2022-09-05T20:54:28.316Z,99706.91
2022-09-05T20:55:40.052Z,99711.50
2022-09-05T20:58:24.665Z,99723.69
2022-09-05T21:01:22.764Z,99713.69
2022-09-05T21:03:58.780Z,99713.59
2022-09-05T21:06:26.667Z,99704.75
2022-09-05T21:09:06.873Z,99710.91
2022-09-05T21:11:33.862Z,99715.59
2022-09-05T21:14:04.318Z,99718.97
2022-09-05T21:16:39.837Z,99709.34
2022-09-05T21:19:07.668Z,99720.50
2022-09-05T21:21:34.790Z,99713.47
2022-09-05T21:24:17.269Z,99716.69
2022-09-05T21:26:49.509Z,99709.16
2022-09-05T21:29:24.955Z,99714.88
2022-09-05T21:31:57.670Z,99719.94
2022-09-05T21:34:31.118Z,99721.97
2022-09-05T21:37:06.569Z,99719.81
2022-09-05T21:39:39.816Z,99708.09
2022-09-05T21:42:30.699Z,99709.25
2022-09-05T21:47:41.946Z,99712.44
2022-09-05T21:47:52.357Z,99714.88
2022-09-05T21:50:30.702Z,99718.72
2022-09-05T21:54:06.563Z,99719.03
2022-09-05T21:59:22.459Z,99712.19
2022-09-05T21:59:29.147Z,99716.69
2022-09-05T22:01:44.665Z,99706.81
2022-09-05T22:04:09.271Z,99707.47
2022-09-05T22:06:36.752Z,99700.44
2022-09-05T22:09:13.363Z,99697.41
2022-09-05T22:11:40.971Z,99696.25
2022-09-05T22:14:08.959Z,99693.44
2022-09-05T22:16:40.050Z,99694.72
2022-09-05T22:19:12.608Z,99690.25
2022-09-05T22:21:39.859Z,99699.78
2022-09-05T22:24:10.167Z,99689.75
2022-09-05T22:27:10.749Z,99684.88
2022-09-05T22:29:34.375Z,99687.94
2022-09-05T22:32:01.125Z,99679.78
2022-09-05T22:34:30.828Z,99674.97
2022-09-05T22:36:57.480Z,99667.06
2022-09-05T22:39:37.187Z,99670.41
2022-09-05T22:42:10.633Z,99671.13
2022-09-05T22:44:39.427Z,99666.31
2022-09-05T22:47:08.388Z,99665.03
2022-09-05T22:49:36.433Z,99666.69
2022-09-05T22:52:05.367Z,99669.91
2022-09-05T22:54:31.904Z,99662.50
2022-09-05T22:56:58.346Z,99664.53
2022-09-05T22:59:24.754Z,99665.22
2022-09-05T23:01:51.433Z,99667.56
2022-09-05T23:04:17.997Z,99676.75
2022-09-05T23:06:44.404Z,99685.94
2022-09-05T23:09:10.824Z,99682.81
2022-09-05T23:11:37.292Z,99688.00
2022-09-05T23:14:03.770Z,99684.28
2022-09-05T23:16:30.151Z,99693.53
2022-09-05T23:18:56.566Z,99697.03
2022-09-05T23:21:22.982Z,99690.31
2022-09-05T23:23:49.466Z,99695.34
2022-09-05T23:26:16.132Z,99694.34
2022-09-05T23:28:43.721Z,99703.72
2022-09-05T23:31:11.276Z,99701.69
2022-09-05T23:33:41.474Z,99695.72
2022-09-05T23:36:13.464Z,99690.00
2022-09-05T23:38:42.241Z,99686.84
2022-09-05T23:41:12.788Z,99687.69
2022-09-05T23:43:39.233Z,99690.38
2022-09-05T23:46:05.924Z,99685.34
2022-09-05T23:48:32.345Z,99685.03
2022-09-05T23:51:08.433Z,99684.84
2022-09-05T23:53:34.891Z,99687.69
2022-09-05T23:56:07.678Z,99687.00
2022-09-05T23:58:35.569Z,99685.84
